Airfield :
LOGIN :

Register | Disclaimer

   EN    FR    IT 

 










Legend :    VFR   Marginal VFR   IFR   Intensive IFR   Very Intensive IFR
Visi :
Ceiling :
>= 8 km
>= 3000ft
5 to 8 km
1000 to 3000 ft
1500m to 5 km
500 to 1000 ft
800 to 1500m
200 to 500 ft
< 800m
< 200 ft
Symbols :   Thunderstorms  Fog  Heavy snow  Heavy precipitations  Wind > 20 kt
SIGMETs :     Misc.  Thunderstorms  Icing  Turbulence  Mountain Waves  Volcanic Ashes






- Airport Elevation : 230 ft


ETHB - Buckeburg Army

CURRENT METAR :
  • 010520Z 18007KT 4000 -RADZ BR FEW006 BKN008 04/03 Q1010 REDZ GRN GRN TEMPO YLO

EXPIRED METARs :
  • 010438Z 20009KT 4000 -DZ BR SCT007 BKN013 04/03 Q1010 REDZ GRN
  • 010429Z 19010KT 3500 DZ BR OVC007 04/03 Q1010 YLO
  • 010420Z 19010KT 4000 -DZ BR BKN006 04/03 Q1010 YLO
  • 010349Z 20011KT 6000 BKN006 04/03 Q1010 YLO
  • 010320Z 19012KT 4500 -RA BR FEW007 BKN012 04/03 Q1010 RERA GRN
  • 010256Z 20012KT 4000 RA BR BKN007 BKN015 04/03 Q1010 GRN

TAF TAF ETHB
Valid from the 01 at 06:00 until the 01 at 15:00 UTC


010505Z 0106/0115 18005KT 6000 NSW BKN008 BKN015
TEMPO 0106/0115 19008KT 2500 RADZ BKN004 OVC007



MET'MAP, your aeronautical weather chart ! - Copyright ORBIFLY December 2007 - Disclaimer

ORBIFLY MET'MAP TEAM :

Programming & Development : Alexandra Zaïnal
Concept & original design : Baudouin d'Aumeries
Assistance for programming : Marc-Olivier Méhu
Technical & hardware support : Manuel Goepfert

Contact : metmap@orbifly.com




SOURCES & CREDITS :

   NOAA